createdAt,value
2022-09-21T00:01:31.574Z,4.47
2022-09-21T00:04:04.285Z,4.00
2022-09-21T00:06:35.154Z,4.07
2022-09-21T00:09:08.275Z,4.20
2022-09-21T00:11:37.175Z,3.92
2022-09-21T00:14:13.225Z,4.10
2022-09-21T00:16:43.557Z,3.97
2022-09-21T00:19:12.026Z,3.60
2022-09-21T00:21:39.927Z,3.85
2022-09-21T00:24:08.315Z,3.95
2022-09-21T00:26:35.895Z,3.83
2022-09-21T00:29:05.276Z,4.03
2022-09-21T00:31:33.612Z,3.10
2022-09-21T00:34:01.325Z,3.75
2022-09-21T00:36:29.159Z,5.85
2022-09-21T00:39:01.808Z,3.88
2022-09-21T00:41:33.217Z,4.63
2022-09-21T00:44:44.897Z,4.55
2022-09-21T00:47:39.145Z,3.85
2022-09-21T00:50:18.035Z,4.28
2022-09-21T00:52:57.884Z,4.32
2022-09-21T00:55:44.821Z,5.05
2022-09-21T00:58:26.284Z,3.90
2022-09-21T01:00:54.410Z,4.03
2022-09-21T01:03:21.509Z,4.60
2022-09-21T01:05:48.863Z,4.00
2022-09-21T01:08:18.833Z,4.95
2022-09-21T01:11:34.464Z,4.40
2022-09-21T01:14:41.384Z,4.47
2022-09-21T01:17:22.884Z,4.10
2022-09-21T01:20:23.853Z,4.22
2022-09-21T01:23:39.982Z,4.43
2022-09-21T01:27:04.008Z,4.72
2022-09-21T01:30:11.158Z,4.78
2022-09-21T01:33:17.815Z,5.63
2022-09-21T01:35:58.025Z,4.93
2022-09-21T01:38:44.711Z,5.57
2022-09-21T01:41:21.604Z,5.10
2022-09-21T01:44:03.596Z,4.43
2022-09-21T01:46:34.064Z,4.57
2022-09-21T01:49:15.299Z,4.35
2022-09-21T01:51:58.262Z,4.45
2022-09-21T01:54:43.244Z,4.25
2022-09-21T01:57:28.411Z,4.32
2022-09-21T02:00:01.429Z,4.57
2022-09-21T02:02:58.654Z,4.43
2022-09-21T02:05:32.918Z,4.70
2022-09-21T02:08:01.471Z,4.32
2022-09-21T02:10:55.983Z,4.63
2022-09-21T02:13:32.595Z,4.30
2022-09-21T02:16:08.513Z,4.85
2022-09-21T02:19:15.821Z,4.60
2022-09-21T02:22:25.124Z,4.60
2022-09-21T02:25:10.855Z,4.53
2022-09-21T02:27:55.939Z,4.60
2022-09-21T02:30:27.530Z,4.07
2022-09-21T02:33:41.097Z,4.25
2022-09-21T02:36:57.090Z,4.60
2022-09-21T02:40:01.181Z,3.85
2022-09-21T02:42:39.225Z,4.43
2022-09-21T02:45:27.203Z,4.40
2022-09-21T02:48:05.428Z,4.40
2022-09-21T02:50:55.095Z,3.85
2022-09-21T02:53:37.096Z,3.90
2022-09-21T02:56:11.534Z,3.83
2022-09-21T02:58:50.261Z,3.83
2022-09-21T03:03:49.170Z,3.63
2022-09-21T03:06:16.198Z,4.25
2022-09-21T03:08:44.264Z,4.35
2022-09-21T03:13:38.832Z,3.72
2022-09-21T03:16:07.715Z,3.47
2022-09-21T03:18:35.356Z,3.40
2022-09-21T03:21:03.419Z,3.38
2022-09-21T03:25:58.119Z,3.92
2022-09-21T03:28:25.578Z,3.90
2022-09-21T03:30:53.295Z,3.58
2022-09-21T03:33:21.853Z,3.70
2022-09-21T03:35:49.849Z,4.10
2022-09-21T03:40:49.915Z,4.50
2022-09-21T03:43:18.840Z,4.00
2022-09-21T03:45:46.175Z,4.25
2022-09-21T03:48:14.060Z,4.50
2022-09-21T03:50:41.707Z,4.60
2022-09-21T03:53:10.184Z,4.63
2022-09-21T03:55:37.512Z,5.32
2022-09-21T03:58:04.870Z,4.30
2022-09-21T04:00:32.620Z,4.85
2022-09-21T04:03:00.289Z,4.45
2022-09-21T04:05:27.953Z,4.90
2022-09-21T04:07:57.050Z,3.75
2022-09-21T04:10:32.898Z,4.05
2022-09-21T04:13:04.403Z,4.78
2022-09-21T04:15:31.993Z,3.83
2022-09-21T04:17:59.409Z,3.90
2022-09-21T04:20:26.587Z,4.40
2022-09-21T04:22:53.559Z,3.70
2022-09-21T04:25:20.747Z,3.88
2022-09-21T04:27:48.088Z,3.60
2022-09-21T04:30:16.968Z,3.40
2022-09-21T04:32:44.927Z,3.47
2022-09-21T04:35:11.987Z,3.42
2022-09-21T04:37:38.975Z,3.78
2022-09-21T04:40:08.296Z,3.28
2022-09-21T04:42:35.536Z,3.47
2022-09-21T04:45:02.709Z,3.30
2022-09-21T04:47:31.528Z,3.23
2022-09-21T04:49:58.555Z,3.28
2022-09-21T04:52:25.698Z,3.83
2022-09-21T04:54:53.301Z,3.75
2022-09-21T04:57:20.369Z,3.55
2022-09-21T04:59:47.391Z,4.00
2022-09-21T05:02:14.545Z,4.10
2022-09-21T05:04:41.541Z,3.90
2022-09-21T05:07:08.515Z,3.10
2022-09-21T05:09:54.559Z,3.38
2022-09-21T05:12:22.182Z,4.00
2022-09-21T05:14:52.135Z,4.45
2022-09-21T05:17:22.756Z,4.22
2022-09-21T05:19:51.743Z,3.95
2022-09-21T05:22:18.838Z,4.00
2022-09-21T05:24:46.416Z,4.77
2022-09-21T05:27:14.053Z,4.90
2022-09-21T05:29:42.628Z,5.20
2022-09-21T05:33:01.530Z,5.60
2022-09-21T05:36:05.118Z,4.75
2022-09-21T05:38:33.260Z,5.40
2022-09-21T05:43:29.301Z,5.27
2022-09-21T05:46:35.805Z,5.30
2022-09-21T05:49:46.597Z,4.43
2022-09-21T05:56:23.900Z,4.32
2022-09-21T05:59:53.701Z,4.65
2022-09-21T06:02:53.307Z,5.20
2022-09-21T06:05:21.317Z,5.45
2022-09-21T06:07:48.314Z,5.25
2022-09-21T06:10:16.331Z,5.60
2022-09-21T06:15:17.144Z,6.40
2022-09-21T06:17:44.308Z,6.38
2022-09-21T06:20:11.314Z,6.50
2022-09-21T06:22:38.277Z,6.80
2022-09-21T06:25:06.164Z,6.72
2022-09-21T06:27:33.143Z,7.82
2022-09-21T06:30:00.192Z,7.50
2022-09-21T06:32:28.711Z,7.68
2022-09-21T06:34:55.633Z,7.20
2022-09-21T06:37:22.650Z,7.53
2022-09-21T06:39:49.560Z,7.75
2022-09-21T06:42:17.282Z,6.78
2022-09-21T06:44:44.358Z,7.75
2022-09-21T06:47:11.266Z,7.47
2022-09-21T06:49:42.363Z,8.18
2022-09-21T06:52:09.742Z,8.57
2022-09-21T06:54:36.900Z,9.40
2022-09-21T06:57:04.032Z,7.00
2022-09-21T06:59:31.112Z,9.32
2022-09-21T07:01:58.676Z,9.70
2022-09-21T07:04:26.136Z,9.35
2022-09-21T07:06:53.247Z,7.22
2022-09-21T07:12:10.987Z,9.13
2022-09-21T07:14:38.355Z,7.80
2022-09-21T07:17:05.711Z,9.32
2022-09-21T07:19:32.635Z,9.13
2022-09-21T07:21:59.667Z,9.27
2022-09-21T07:24:26.584Z,6.97
2022-09-21T07:26:53.517Z,9.18
2022-09-21T07:29:20.550Z,8.18
2022-09-21T07:31:48.502Z,7.85
2022-09-21T07:36:43.107Z,7.40
2022-09-21T07:39:11.282Z,7.03
2022-09-21T07:41:38.975Z,6.95
2022-09-21T07:44:06.095Z,7.55
2022-09-21T07:46:33.166Z,7.65
2022-09-21T07:49:00.118Z,6.45
2022-09-21T07:51:27.106Z,6.53
2022-09-21T07:53:57.251Z,5.95
2022-09-21T07:56:25.489Z,6.65
2022-09-21T07:59:07.665Z,6.00
2022-09-21T08:01:42.227Z,6.07
2022-09-21T08:04:11.480Z,6.18
2022-09-21T08:06:42.431Z,6.05
2022-09-21T08:09:09.461Z,5.63
2022-09-21T08:11:37.831Z,5.60
2022-09-21T08:14:05.578Z,4.70
2022-09-21T08:16:34.076Z,5.80
2022-09-21T08:19:02.274Z,6.00
2022-09-21T08:23:56.123Z,5.13
2022-09-21T08:26:23.960Z,6.50
2022-09-21T08:28:53.900Z,5.32
2022-09-21T08:31:24.551Z,6.00
2022-09-21T08:33:55.204Z,5.55
2022-09-21T08:36:22.147Z,5.15
2022-09-21T08:38:49.230Z,5.13
2022-09-21T08:41:48.053Z,5.57
2022-09-21T08:44:54.309Z,4.38
2022-09-21T08:47:43.858Z,5.15
2022-09-21T08:50:46.705Z,4.68
2022-09-21T08:53:45.790Z,5.00
2022-09-21T08:56:16.229Z,4.47
2022-09-21T08:58:43.962Z,6.28
2022-09-21T09:01:31.985Z,5.15
2022-09-21T09:05:01.589Z,4.85
2022-09-21T09:08:21.817Z,5.25
2022-09-21T09:11:46.789Z,5.07
2022-09-21T09:15:33.474Z,4.90
2022-09-21T09:18:43.419Z,4.22
2022-09-21T09:21:31.906Z,4.22
2022-09-21T09:24:31.829Z,4.03
2022-09-21T09:27:19.314Z,4.35
2022-09-21T09:30:05.071Z,4.20
2022-09-21T09:32:53.369Z,4.47
2022-09-21T09:35:51.721Z,3.53
2022-09-21T09:38:56.316Z,3.38
2022-09-21T09:42:15.832Z,3.58
2022-09-21T09:45:16.302Z,2.90
2022-09-21T09:48:53.309Z,2.55
2022-09-21T09:51:21.253Z,2.28
2022-09-21T09:53:48.344Z,3.03
2022-09-21T09:56:15.459Z,2.85
2022-09-21T09:59:08.208Z,2.78
2022-09-21T10:01:58.115Z,2.50
2022-09-21T10:04:25.416Z,2.10
2022-09-21T10:06:52.414Z,1.40
2022-09-21T10:09:35.637Z,1.40
2022-09-21T10:12:25.542Z,1.50
2022-09-21T10:15:00.868Z,1.88
2022-09-21T10:17:28.354Z,1.60
2022-09-21T10:20:06.508Z,1.60
2022-09-21T10:22:33.570Z,1.50
2022-09-21T10:25:05.282Z,1.50
2022-09-21T10:27:45.334Z,1.65
2022-09-21T10:30:38.861Z,1.00
2022-09-21T10:33:22.185Z,0.88
2022-09-21T10:35:53.115Z,1.08
2022-09-21T10:38:30.703Z,1.48
2022-09-21T10:40:58.166Z,1.23
2022-09-21T10:43:45.954Z,1.08
2022-09-21T10:46:14.643Z,1.08
2022-09-21T10:48:46.894Z,1.40
2022-09-21T10:51:31.927Z,1.15
2022-09-21T10:53:59.107Z,1.02
2022-09-21T10:56:26.642Z,1.00
2022-09-21T10:59:25.568Z,1.10
2022-09-21T11:01:58.669Z,1.00
2022-09-21T11:04:48.599Z,1.17
2022-09-21T11:07:27.375Z,0.85
2022-09-21T11:10:44.977Z,1.20
2022-09-21T11:13:35.371Z,1.10
2022-09-21T11:16:35.125Z,1.10
2022-09-21T11:19:42.534Z,1.13
2022-09-21T11:22:43.250Z,1.20
2022-09-21T11:25:24.923Z,1.10
2022-09-21T11:28:26.045Z,1.10
2022-09-21T11:32:06.067Z,1.10
2022-09-21T11:35:15.347Z,1.17
2022-09-21T11:38:39.872Z,1.08
2022-09-21T11:41:39.019Z,1.00
2022-09-21T11:44:27.846Z,1.02
2022-09-21T11:47:46.901Z,1.20
2022-09-21T11:50:46.461Z,1.13
2022-09-21T11:54:37.801Z,1.20
2022-09-21T11:57:23.163Z,1.20
2022-09-21T12:00:15.792Z,1.10
2022-09-21T12:03:55.017Z,1.05
2022-09-21T12:06:56.141Z,1.10
2022-09-21T12:10:08.938Z,0.93
2022-09-21T12:13:04.560Z,1.10
2022-09-21T12:16:03.035Z,1.00
2022-09-21T12:19:00.846Z,1.00
2022-09-21T12:22:09.707Z,0.85
2022-09-21T12:24:59.239Z,0.88
2022-09-21T12:27:36.593Z,0.75
2022-09-21T12:30:19.528Z,0.82
2022-09-21T12:32:53.511Z,0.98
2022-09-21T12:36:02.337Z,1.02
2022-09-21T12:38:59.584Z,0.82
2022-09-21T12:41:52.338Z,1.20
2022-09-21T12:44:53.490Z,1.00
2022-09-21T12:48:29.434Z,1.00
2022-09-21T12:51:29.700Z,1.13
2022-09-21T12:54:12.362Z,1.20
2022-09-21T12:57:42.709Z,1.15
2022-09-21T13:00:19.801Z,1.10
2022-09-21T13:03:40.541Z,1.15
2022-09-21T13:06:57.723Z,1.10
2022-09-21T13:09:31.140Z,1.10
2022-09-21T13:12:17.421Z,1.27
2022-09-21T13:15:03.205Z,1.00
2022-09-21T13:17:34.004Z,1.17
2022-09-21T13:20:22.675Z,1.08
2022-09-21T13:23:01.753Z,1.08
2022-09-21T13:25:37.914Z,1.13
2022-09-21T13:28:13.666Z,1.10
2022-09-21T13:34:32.557Z,1.30
2022-09-21T13:37:20.653Z,1.05
2022-09-21T13:40:03.271Z,1.10
2022-09-21T13:42:33.271Z,1.30
2022-09-21T13:45:24.744Z,1.05
2022-09-21T13:48:00.359Z,1.40
2022-09-21T13:50:43.318Z,1.08
2022-09-21T13:53:40.264Z,1.20
2022-09-21T13:56:20.991Z,0.90
2022-09-21T13:58:57.383Z,0.93
2022-09-21T14:01:46.633Z,1.20
2022-09-21T14:04:37.739Z,1.27
2022-09-21T14:07:08.688Z,1.00
2022-09-21T14:10:00.948Z,0.90
2022-09-21T14:12:45.526Z,0.93
2022-09-21T14:15:19.576Z,1.70
2022-09-21T14:18:38.138Z,0.90
2022-09-21T14:21:19.030Z,1.15
2022-09-21T14:24:07.931Z,0.95
2022-09-21T14:26:41.278Z,1.10
2022-09-21T14:29:53.208Z,1.30
2022-09-21T14:32:33.675Z,1.00
2022-09-21T14:35:19.181Z,1.10
2022-09-21T14:37:57.923Z,1.20
2022-09-21T14:40:39.217Z,1.23
2022-09-21T14:43:22.042Z,0.90
2022-09-21T14:46:40.623Z,1.00
2022-09-21T14:49:34.960Z,1.10
2022-09-21T14:53:11.436Z,1.08
2022-09-21T14:56:58.302Z,1.10
2022-09-21T15:00:24.608Z,1.08
2022-09-21T15:03:30.782Z,0.88
2022-09-21T15:06:38.256Z,1.02
2022-09-21T15:10:24.205Z,1.00
2022-09-21T15:13:10.523Z,1.05
2022-09-21T15:16:26.271Z,0.90
2022-09-21T15:19:24.819Z,0.82
2022-09-21T15:22:17.312Z,1.02
2022-09-21T15:24:56.860Z,1.17
2022-09-21T15:27:33.509Z,0.63
2022-09-21T15:30:06.422Z,0.82
2022-09-21T15:32:46.603Z,0.98
2022-09-21T15:35:27.843Z,0.80
2022-09-21T15:38:00.886Z,0.73
2022-09-21T15:40:46.211Z,1.08
2022-09-21T15:43:15.897Z,1.02
2022-09-21T15:46:00.917Z,1.05
2022-09-21T15:48:38.381Z,1.00
2022-09-21T15:51:31.885Z,0.77
2022-09-21T15:54:21.308Z,1.00
2022-09-21T15:56:48.642Z,0.80
2022-09-21T15:59:22.310Z,1.00
2022-09-21T16:01:55.872Z,0.90
2022-09-21T16:04:28.046Z,1.08
2022-09-21T16:07:34.416Z,1.05
2022-09-21T16:10:24.172Z,1.10
2022-09-21T16:12:51.298Z,0.98
2022-09-21T16:15:22.429Z,0.90
2022-09-21T16:18:06.944Z,0.90
2022-09-21T16:20:48.041Z,1.60
2022-09-21T16:23:24.365Z,0.90
2022-09-21T16:26:01.720Z,1.38
2022-09-21T16:28:42.172Z,1.30
2022-09-21T16:31:36.341Z,1.08
2022-09-21T16:34:36.999Z,1.65
2022-09-21T16:37:24.339Z,1.30
2022-09-21T16:39:54.401Z,1.45
2022-09-21T16:42:27.978Z,1.23
2022-09-21T16:44:55.905Z,1.23
2022-09-21T16:50:01.593Z,1.58
2022-09-21T16:52:30.775Z,1.17
2022-09-21T16:54:58.917Z,1.63
2022-09-21T16:57:26.661Z,1.42
2022-09-21T16:59:53.692Z,1.35
2022-09-21T17:02:21.056Z,1.25
2022-09-21T17:04:48.247Z,1.30
2022-09-21T17:07:20.126Z,1.33
2022-09-21T17:09:48.292Z,1.15
2022-09-21T17:12:19.068Z,1.65
2022-09-21T17:14:47.346Z,1.63
2022-09-21T17:17:24.391Z,1.33
2022-09-21T17:19:54.254Z,1.63
2022-09-21T17:22:21.988Z,1.33
2022-09-21T17:24:52.849Z,1.30
2022-09-21T17:27:26.795Z,1.45
2022-09-21T17:29:55.361Z,1.30
2022-09-21T17:32:24.791Z,1.63
2022-09-21T17:35:41.861Z,1.42
2022-09-21T17:38:12.597Z,1.60
2022-09-21T17:40:43.087Z,1.42
2022-09-21T17:43:50.194Z,1.63
2022-09-21T17:46:50.514Z,1.48
2022-09-21T17:49:18.867Z,1.65
2022-09-21T17:52:04.881Z,1.13
2022-09-21T17:54:32.220Z,1.60
2022-09-21T17:57:49.135Z,1.45
2022-09-21T18:00:28.743Z,1.92
2022-09-21T18:02:56.177Z,1.70
2022-09-21T18:05:30.365Z,2.40
2022-09-21T18:07:58.409Z,2.72
2022-09-21T18:13:24.107Z,3.08
2022-09-21T18:16:46.227Z,2.70
2022-09-21T18:20:03.219Z,2.53
2022-09-21T18:23:14.181Z,2.22
2022-09-21T18:25:49.204Z,2.25
2022-09-21T18:28:42.251Z,2.92
2022-09-21T18:31:43.275Z,2.40
2022-09-21T18:34:41.735Z,1.90
2022-09-21T18:37:26.569Z,2.40
2022-09-21T18:40:35.713Z,2.28
2022-09-21T18:43:55.395Z,2.00
2022-09-21T18:46:50.838Z,2.13
2022-09-21T18:50:15.174Z,1.65
2022-09-21T18:53:11.674Z,1.85
2022-09-21T18:55:39.242Z,1.95
2022-09-21T18:58:06.634Z,2.05
2022-09-21T19:00:35.440Z,1.90
2022-09-21T19:03:17.698Z,2.20
2022-09-21T19:06:45.831Z,2.10
2022-09-21T19:09:41.132Z,1.65
2022-09-21T19:13:00.210Z,2.33
2022-09-21T19:16:00.939Z,1.85
2022-09-21T19:19:07.350Z,1.90
2022-09-21T19:22:10.464Z,2.00
2022-09-21T19:24:58.738Z,2.20
2022-09-21T19:27:39.821Z,2.47
2022-09-21T19:30:14.156Z,2.30
2022-09-21T19:32:58.391Z,2.08
2022-09-21T19:35:28.837Z,2.50
2022-09-21T19:38:04.021Z,2.75
2022-09-21T19:40:37.253Z,2.53
2022-09-21T19:43:35.553Z,2.58
2022-09-21T19:46:50.330Z,2.50
2022-09-21T19:49:20.935Z,2.55
2022-09-21T19:51:58.490Z,2.42
2022-09-21T19:54:44.735Z,2.85
2022-09-21T19:57:42.365Z,3.05
2022-09-21T20:00:16.760Z,3.03
2022-09-21T20:03:26.029Z,3.13
2022-09-21T20:06:20.359Z,3.03
2022-09-21T20:09:29.157Z,2.90
2022-09-21T20:12:11.017Z,2.60
2022-09-21T20:15:22.578Z,3.17
2022-09-21T20:18:03.389Z,3.13
2022-09-21T20:20:31.176Z,3.30
2022-09-21T20:23:00.313Z,3.13
2022-09-21T20:25:51.574Z,3.13
2022-09-21T20:28:19.093Z,3.60
2022-09-21T20:30:46.640Z,2.97
2022-09-21T20:33:22.704Z,2.95
2022-09-21T20:35:55.390Z,3.50
2022-09-21T20:38:23.698Z,2.92
2022-09-21T20:40:51.689Z,3.30
2022-09-21T20:45:49.440Z,3.47
2022-09-21T20:48:17.274Z,3.17
2022-09-21T20:50:50.685Z,3.40
2022-09-21T20:53:19.364Z,3.53
2022-09-21T20:56:03.753Z,3.50
2022-09-21T20:58:31.016Z,3.83
2022-09-21T21:01:08.817Z,4.28
2022-09-21T21:03:36.551Z,4.90
2022-09-21T21:06:20.710Z,4.55
2022-09-21T21:08:48.018Z,5.20
2022-09-21T21:11:14.932Z,4.93
2022-09-21T21:13:42.607Z,6.10
2022-09-21T21:16:12.363Z,5.20
2022-09-21T21:18:43.458Z,5.57
2022-09-21T21:21:10.480Z,5.90
2022-09-21T21:23:56.236Z,5.97
2022-09-21T21:26:38.268Z,6.30
2022-09-21T21:29:13.690Z,5.82
2022-09-21T21:31:41.292Z,5.90
2022-09-21T21:34:08.431Z,9.27
2022-09-21T21:36:35.434Z,8.03
2022-09-21T21:39:02.413Z,7.38
2022-09-21T21:41:31.229Z,8.70
2022-09-21T21:43:58.787Z,7.82
2022-09-21T21:46:29.848Z,8.77
2022-09-21T21:48:56.886Z,7.63
2022-09-21T21:51:23.833Z,7.88
2022-09-21T21:53:51.232Z,8.98
2022-09-21T21:56:20.315Z,7.38
2022-09-21T21:58:47.296Z,7.30
2022-09-21T22:01:20.947Z,7.40
2022-09-21T22:03:58.181Z,7.57
2022-09-21T22:06:28.021Z,6.90
2022-09-21T22:08:57.497Z,7.82
2022-09-21T22:11:27.568Z,9.00
2022-09-21T22:13:55.742Z,9.20
2022-09-21T22:16:25.946Z,9.10
2022-09-21T22:18:53.584Z,8.63
2022-09-21T22:21:31.782Z,9.80
2022-09-21T22:24:04.346Z,8.65
2022-09-21T22:26:38.616Z,8.05
2022-09-21T22:29:09.593Z,8.23
2022-09-21T22:31:42.862Z,7.60
2022-09-21T22:34:12.591Z,6.60
2022-09-21T22:36:40.818Z,5.78
2022-09-21T22:39:09.316Z,5.93
2022-09-21T22:41:41.827Z,5.93
2022-09-21T22:44:11.615Z,5.82
2022-09-21T22:46:39.058Z,6.38
2022-09-21T22:49:06.687Z,5.90
2022-09-21T22:51:35.570Z,5.88
2022-09-21T22:54:02.809Z,5.72
2022-09-21T22:56:33.646Z,6.78
2022-09-21T22:59:04.580Z,6.28
2022-09-21T23:01:37.761Z,5.63
2022-09-21T23:04:13.236Z,6.63
2022-09-21T23:06:45.301Z,6.82
2022-09-21T23:09:21.079Z,5.82
2022-09-21T23:11:54.341Z,7.13
2022-09-21T23:14:23.491Z,5.88
2022-09-21T23:16:50.945Z,6.20
2022-09-21T23:19:17.926Z,5.93
2022-09-21T23:21:49.914Z,6.78
2022-09-21T23:24:19.308Z,6.20
2022-09-21T23:26:47.973Z,6.70
2022-09-21T23:29:16.310Z,6.18
2022-09-21T23:31:45.758Z,5.65
2022-09-21T23:34:15.199Z,6.25
2022-09-21T23:36:45.167Z,6.57
2022-09-21T23:39:15.727Z,6.75
2022-09-21T23:41:43.943Z,6.30
2022-09-21T23:44:11.413Z,5.72
2022-09-21T23:46:40.426Z,6.90
2022-09-21T23:49:08.424Z,6.63
2022-09-21T23:51:36.584Z,6.47
2022-09-21T23:54:04.053Z,6.72
2022-09-21T23:56:31.876Z,6.63
2022-09-21T23:59:00.141Z,6.05
